首页
METAR-TAF:

METAR-TAF

机场 :

香港, 中华人民共和国

香港國際機場

纬度: 22-19N, 经度: 113-55E, 海拔: 9米

当前天气观测

该预报发布于15分钟前的05:30 UTC
风速12节,风向北转西北
温度 20°C
湿度 83%
气压 1018 hPa
能見度: 2900
少量云层高于1800英尺

METAR: VHHH 250530Z 33012KT 2900 HZ FEW018 20/17 Q1018 NOSIG

时间: 13:45 (05:45 UTC)

预报

该预报发布于45分钟前的05:00 UTC
预报有效从25日的 06点(UTC)到 26日的 12点(UTC)
风速10节,风向北转西北
能見度: 7000
少量云层高于2000英尺
散云层高于4000英尺
短暂存在
从 25日的 06点(UTC)到 25日的 10点(UTC)
能見度: 2800
轻雾, 霾
成为
从 25日的 06点(UTC)到 25日的 08点(UTC)
风速10节,风向北转东北
短暂存在
从 25日的 21点(UTC)到 26日的 03点(UTC)
风速5节,风向多变
成为
从 26日的 03点(UTC)到 26日的 05点(UTC)
风速10节,风向
短暂存在
从 26日的 04点(UTC)到 26日的 10点(UTC)
风速10节,风向西转西北

TAF: VHHH 250500Z 2506/2612 33010KT 7000 FEW020 SCT040 TX21/2507Z TX20/2606Z TN16/2523Z TEMPO 2506/2510 2800 BR HZ BECMG 2506/2508 03010KT TEMPO 2521/2603 VRB05KT BECMG 2603/2605 09010KT TEMPO 2604/2610 30010KT

超过4000个机场的气象观测和天气预报(METAR&TAF报告)。

可查询的气象台以黄色和红色小点在地图上表示。

将鼠标移到小点上方,可查看气象台名称。

然后点击查看天气观测和预报。

如需切换地图:点击带黑十字的绿色按钮放大地图;点击带横线的绿色按钮缩小地图;或者点击绿色箭头查看邻近地区的地图。


METAR-TAF: